sensor_id;sensor_type;location;lat;lon;timestamp;pressure;altitude;pressure_sealevel;temperature;humidity
62510;BME280;48558;48.242;11.654;2023-04-28T00:04:05;96226.47;;;6.66;100.00
62510;BME280;48558;48.242;11.654;2023-04-28T00:08:19;96228.25;;;6.72;100.00
62510;BME280;48558;48.242;11.654;2023-04-28T00:12:33;96201.56;;;6.73;100.00
62510;BME280;48558;48.242;11.654;2023-04-28T00:16:46;96216.06;;;6.73;100.00
62510;BME280;48558;48.242;11.654;2023-04-28T00:20:59;96213.31;;;6.73;100.00
62510;BME280;48558;48.242;11.654;2023-04-28T00:25:22;96210.91;;;6.75;100.00
62510;BME280;48558;48.242;11.654;2023-04-28T00:29:45;96214.84;;;6.74;100.00
62510;BME280;48558;48.242;11.654;2023-04-28T00:33:58;96201.09;;;6.74;100.00
62510;BME280;48558;48.242;11.654;2023-04-28T00:38:10;96199.03;;;6.78;100.00
62510;BME280;48558;48.242;11.654;2023-04-28T00:42:23;96186.94;;;6.63;100.00
62510;BME280;48558;48.242;11.654;2023-04-28T00:46:35;96176.94;;;6.57;100.00
62510;BME280;48558;48.242;11.654;2023-04-28T00:50:58;96188.81;;;6.66;100.00
62510;BME280;48558;48.242;11.654;2023-04-28T00:55:14;96189.38;;;6.74;100.00
62510;BME280;48558;48.242;11.654;2023-04-28T00:59:28;96190.34;;;6.80;100.00
62510;BME280;48558;48.242;11.654;2023-04-28T01:03:41;96187.06;;;6.85;100.00
62510;BME280;48558;48.242;11.654;2023-04-28T01:07:54;96190.09;;;6.99;100.00
62510;BME280;48558;48.242;11.654;2023-04-28T01:12:16;96173.53;;;7.03;100.00
62510;BME280;48558;48.242;11.654;2023-04-28T01:16:29;96178.00;;;7.09;100.00
62510;BME280;48558;48.242;11.654;2023-04-28T01:20:43;96164.91;;;7.13;100.00
62510;BME280;48558;48.242;11.654;2023-04-28T01:24:56;96158.22;;;7.14;100.00
62510;BME280;48558;48.242;11.654;2023-04-28T01:29:10;96168.75;;;7.16;100.00
62510;BME280;48558;48.242;11.654;2023-04-28T01:33:23;96160.53;;;7.16;100.00
62510;BME280;48558;48.242;11.654;2023-04-28T01:37:36;96145.22;;;7.15;100.00
62510;BME280;48558;48.242;11.654;2023-04-28T01:41:55;96142.94;;;7.13;100.00
62510;BME280;48558;48.242;11.654;2023-04-28T01:46:09;96157.88;;;7.12;100.00
62510;BME280;48558;48.242;11.654;2023-04-28T01:50:31;96166.66;;;7.20;100.00
62510;BME280;48558;48.242;11.654;2023-04-28T01:54:54;96153.38;;;7.18;100.00
62510;BME280;48558;48.242;11.654;2023-04-28T01:59:07;96164.78;;;7.30;100.00
62510;BME280;48558;48.242;11.654;2023-04-28T02:03:19;96155.97;;;7.35;100.00
62510;BME280;48558;48.242;11.654;2023-04-28T02:07:32;96157.63;;;7.32;100.00
62510;BME280;48558;48.242;11.654;2023-04-28T02:11:54;96154.38;;;7.46;100.00
62510;BME280;48558;48.242;11.654;2023-04-28T02:16:17;96138.94;;;7.49;100.00
62510;BME280;48558;48.242;11.654;2023-04-28T02:20:29;96152.22;;;7.63;100.00
62510;BME280;48558;48.242;11.654;2023-04-28T02:24:43;96157.78;;;7.72;100.00
62510;BME280;48558;48.242;11.654;2023-04-28T02:28:56;96151.84;;;7.73;100.00
62510;BME280;48558;48.242;11.654;2023-04-28T02:33:08;96166.63;;;7.88;100.00
62510;BME280;48558;48.242;11.654;2023-04-28T02:37:21;96154.28;;;7.93;100.00
62510;BME280;48558;48.242;11.654;2023-04-28T02:41:34;96125.88;;;8.05;100.00
62510;BME280;48558;48.242;11.654;2023-04-28T02:45:46;96113.78;;;7.93;100.00
62510;BME280;48558;48.242;11.654;2023-04-28T02:49:58;96114.41;;;7.97;100.00
62510;BME280;48558;48.242;11.654;2023-04-28T02:54:11;96126.19;;;7.98;100.00
62510;BME280;48558;48.242;11.654;2023-04-28T02:58:34;96140.56;;;8.02;100.00
62510;BME280;48558;48.242;11.654;2023-04-28T03:02:49;96138.84;;;7.95;100.00
62510;BME280;48558;48.242;11.654;2023-04-28T03:07:02;96141.00;;;8.01;100.00
62510;BME280;48558;48.242;11.654;2023-04-28T03:11:14;96126.75;;;8.24;100.00
62510;BME280;48558;48.242;11.654;2023-04-28T03:15:37;96111.03;;;8.24;100.00
62510;BME280;48558;48.242;11.654;2023-04-28T03:19:49;96109.53;;;8.32;100.00
62510;BME280;48558;48.242;11.654;2023-04-28T03:24:02;96109.72;;;8.38;100.00
62510;BME280;48558;48.242;11.654;2023-04-28T03:28:16;96104.41;;;8.43;100.00
62510;BME280;48558;48.242;11.654;2023-04-28T03:32:28;96109.28;;;8.39;100.00
62510;BME280;48558;48.242;11.654;2023-04-28T03:36:41;96080.44;;;8.22;100.00
62510;BME280;48558;48.242;11.654;2023-04-28T03:40:53;96101.28;;;8.32;100.00
62510;BME280;48558;48.242;11.654;2023-04-28T03:45:07;96107.78;;;8.47;100.00
62510;BME280;48558;48.242;11.654;2023-04-28T03:49:19;96118.88;;;8.35;100.00
62510;BME280;48558;48.242;11.654;2023-04-28T03:53:32;96134.31;;;8.32;100.00
62510;BME280;48558;48.242;11.654;2023-04-28T03:57:45;96127.03;;;8.38;100.00
62510;BME280;48558;48.242;11.654;2023-04-28T04:01:57;96137.66;;;8.58;100.00
62510;BME280;48558;48.242;11.654;2023-04-28T04:06:10;96136.75;;;8.61;100.00
62510;BME280;48558;48.242;11.654;2023-04-28T04:10:22;96138.47;;;8.68;100.00
62510;BME280;48558;48.242;11.654;2023-04-28T04:14:35;96141.81;;;8.62;100.00
62510;BME280;48558;48.242;11.654;2023-04-28T04:18:47;96142.88;;;8.65;100.00
62510;BME280;48558;48.242;11.654;2023-04-28T04:23:01;96144.13;;;8.73;100.00
62510;BME280;48558;48.242;11.654;2023-04-28T04:27:14;96135.13;;;8.73;100.00
62510;BME280;48558;48.242;11.654;2023-04-28T04:31:27;96125.91;;;8.76;100.00
62510;BME280;48558;48.242;11.654;2023-04-28T04:35:39;96131.91;;;8.74;100.00
62510;BME280;48558;48.242;11.654;2023-04-28T04:39:52;96126.25;;;8.87;100.00
62510;BME280;48558;48.242;11.654;2023-04-28T04:44:04;96118.00;;;8.87;100.00
62510;BME280;48558;48.242;11.654;2023-04-28T04:48:17;96103.94;;;9.03;100.00
62510;BME280;48558;48.242;11.654;2023-04-28T04:52:30;96093.84;;;9.00;100.00
62510;BME280;48558;48.242;11.654;2023-04-28T04:56:52;96097.84;;;9.26;100.00
62510;BME280;48558;48.242;11.654;2023-04-28T05:01:05;96102.44;;;9.20;100.00
62510;BME280;48558;48.242;11.654;2023-04-28T05:05:17;96097.25;;;9.31;100.00
62510;BME280;48558;48.242;11.654;2023-04-28T05:09:32;96104.91;;;9.27;100.00
62510;BME280;48558;48.242;11.654;2023-04-28T05:13:45;96110.72;;;9.38;100.00
62510;BME280;48558;48.242;11.654;2023-04-28T05:17:57;96122.66;;;9.35;100.00
62510;BME280;48558;48.242;11.654;2023-04-28T05:22:10;96125.09;;;9.24;100.00
62510;BME280;48558;48.242;11.654;2023-04-28T05:26:23;96129.69;;;9.09;100.00
62510;BME280;48558;48.242;11.654;2023-04-28T05:30:35;96135.50;;;9.02;100.00
62510;BME280;48558;48.242;11.654;2023-04-28T05:34:48;96122.63;;;9.08;100.00
62510;BME280;48558;48.242;11.654;2023-04-28T05:39:00;96125.41;;;9.26;100.00
62510;BME280;48558;48.242;11.654;2023-04-28T05:43:13;96117.44;;;9.37;100.00
62510;BME280;48558;48.242;11.654;2023-04-28T05:47:35;96112.53;;;9.41;100.00
62510;BME280;48558;48.242;11.654;2023-04-28T05:51:48;96116.38;;;9.44;100.00
62510;BME280;48558;48.242;11.654;2023-04-28T05:56:00;96103.66;;;9.55;100.00
62510;BME280;48558;48.242;11.654;2023-04-28T06:00:14;96105.34;;;9.62;100.00
62510;BME280;48558;48.242;11.654;2023-04-28T06:04:26;96107.97;;;9.56;100.00
62510;BME280;48558;48.242;11.654;2023-04-28T06:08:39;96104.13;;;9.54;100.00
62510;BME280;48558;48.242;11.654;2023-04-28T06:12:52;96110.25;;;9.49;100.00
62510;BME280;48558;48.242;11.654;2023-04-28T06:17:15;96122.06;;;9.40;100.00
62510;BME280;48558;48.242;11.654;2023-04-28T06:21:27;96140.44;;;9.52;100.00
62510;BME280;48558;48.242;11.654;2023-04-28T06:25:40;96126.34;;;9.50;100.00
62510;BME280;48558;48.242;11.654;2023-04-28T06:29:52;96123.75;;;9.65;100.00
62510;BME280;48558;48.242;11.654;2023-04-28T06:34:05;96107.63;;;9.90;100.00
62510;BME280;48558;48.242;11.654;2023-04-28T06:38:18;96093.47;;;9.97;100.00
62510;BME280;48558;48.242;11.654;2023-04-28T06:42:41;96087.94;;;10.16;100.00
62510;BME280;48558;48.242;11.654;2023-04-28T06:46:53;96095.03;;;9.98;100.00
62510;BME280;48558;48.242;11.654;2023-04-28T06:51:06;96102.38;;;10.01;100.00
62510;BME280;48558;48.242;11.654;2023-04-28T06:55:18;96091.19;;;10.14;100.00
62510;BME280;48558;48.242;11.654;2023-04-28T06:59:31;96082.19;;;10.37;100.00
62510;BME280;48558;48.242;11.654;2023-04-28T07:03:44;96098.19;;;10.66;100.00
62510;BME280;48558;48.242;11.654;2023-04-28T07:07:56;96091.69;;;10.78;100.00
62510;BME280;48558;48.242;11.654;2023-04-28T07:12:09;96088.69;;;11.14;100.00
62510;BME280;48558;48.242;11.654;2023-04-28T07:16:22;96074.50;;;11.21;100.00
62510;BME280;48558;48.242;11.654;2023-04-28T07:20:34;96069.66;;;11.31;100.00
62510;BME280;48558;48.242;11.654;2023-04-28T07:24:47;96069.59;;;11.40;100.00
62510;BME280;48558;48.242;11.654;2023-04-28T07:28:59;96081.31;;;11.35;100.00
62510;BME280;48558;48.242;11.654;2023-04-28T07:33:12;96085.56;;;11.60;100.00
62510;BME280;48558;48.242;11.654;2023-04-28T07:37:24;96080.28;;;11.71;100.00
62510;BME280;48558;48.242;11.654;2023-04-28T07:41:37;96084.47;;;11.81;100.00
62510;BME280;48558;48.242;11.654;2023-04-28T07:45:49;96086.94;;;11.79;100.00
62510;BME280;48558;48.242;11.654;2023-04-28T07:50:03;96105.03;;;12.18;100.00
62510;BME280;48558;48.242;11.654;2023-04-28T07:54:26;96103.69;;;12.43;100.00
62510;BME280;48558;48.242;11.654;2023-04-28T07:58:45;96100.03;;;12.51;100.00
62510;BME280;48558;48.242;11.654;2023-04-28T08:02:58;96089.09;;;12.62;100.00
62510;BME280;48558;48.242;11.654;2023-04-28T08:07:21;96095.75;;;12.50;100.00
62510;BME280;48558;48.242;11.654;2023-04-28T08:11:33;96075.06;;;12.66;100.00
62510;BME280;48558;48.242;11.654;2023-04-28T08:15:47;96079.88;;;12.85;100.00
62510;BME280;48558;48.242;11.654;2023-04-28T08:20:00;96087.63;;;13.16;100.00
62510;BME280;48558;48.242;11.654;2023-04-28T08:24:12;96074.22;;;13.55;100.00
62510;BME280;48558;48.242;11.654;2023-04-28T08:28:26;96068.78;;;13.66;100.00
62510;BME280;48558;48.242;11.654;2023-04-28T08:32:39;96078.53;;;13.56;100.00
62510;BME280;48558;48.242;11.654;2023-04-28T08:36:52;96059.28;;;13.27;100.00
62510;BME280;48558;48.242;11.654;2023-04-28T08:41:04;96060.50;;;13.46;100.00
62510;BME280;48558;48.242;11.654;2023-04-28T08:45:17;96054.28;;;13.31;100.00
62510;BME280;48558;48.242;11.654;2023-04-28T08:49:33;96058.16;;;13.19;100.00
62510;BME280;48558;48.242;11.654;2023-04-28T08:53:49;96050.97;;;12.92;100.00
62510;BME280;48558;48.242;11.654;2023-04-28T08:58:06;96048.13;;;12.52;100.00
62510;BME280;48558;48.242;11.654;2023-04-28T09:02:19;96043.09;;;12.50;100.00
62510;BME280;48558;48.242;11.654;2023-04-28T09:06:36;96040.38;;;12.56;100.00
62510;BME280;48558;48.242;11.654;2023-04-28T09:11:06;96041.59;;;12.69;100.00
62510;BME280;48558;48.242;11.654;2023-04-28T09:15:35;96036.19;;;12.80;100.00
62510;BME280;48558;48.242;11.654;2023-04-28T09:19:49;96024.28;;;12.94;100.00
62510;BME280;48558;48.242;11.654;2023-04-28T09:24:01;96018.84;;;13.20;100.00
62510;BME280;48558;48.242;11.654;2023-04-28T09:28:20;96015.50;;;13.62;100.00
62510;BME280;48558;48.242;11.654;2023-04-28T09:32:33;96020.28;;;13.36;100.00
62510;BME280;48558;48.242;11.654;2023-04-28T09:36:55;96013.34;;;13.26;100.00
62510;BME280;48558;48.242;11.654;2023-04-28T09:41:11;96020.31;;;12.81;100.00
62510;BME280;48558;48.242;11.654;2023-04-28T09:45:23;96014.47;;;13.14;100.00
62510;BME280;48558;48.242;11.654;2023-04-28T09:49:55;96012.22;;;12.98;100.00
62510;BME280;48558;48.242;11.654;2023-04-28T09:54:09;96015.81;;;13.04;100.00
62510;BME280;48558;48.242;11.654;2023-04-28T09:58:24;96009.31;;;12.66;100.00
62510;BME280;48558;48.242;11.654;2023-04-28T10:02:37;96008.25;;;12.14;100.00
62510;BME280;48558;48.242;11.654;2023-04-28T10:06:52;96017.06;;;12.13;100.00
62510;BME280;48558;48.242;11.654;2023-04-28T10:11:05;96024.91;;;12.00;100.00
62510;BME280;48558;48.242;11.654;2023-04-28T10:15:19;96025.53;;;12.24;100.00
62510;BME280;48558;48.242;11.654;2023-04-28T10:19:43;96019.94;;;12.18;100.00
62510;BME280;48558;48.242;11.654;2023-04-28T10:24:17;96019.44;;;12.20;100.00
62510;BME280;48558;48.242;11.654;2023-04-28T10:28:44;95995.28;;;12.06;100.00
62510;BME280;48558;48.242;11.654;2023-04-28T10:43:01;96000.34;;;12.22;100.00
62510;BME280;48558;48.242;11.654;2023-04-28T10:47:14;96008.09;;;12.18;100.00
62510;BME280;48558;48.242;11.654;2023-04-28T10:51:27;96013.50;;;12.27;100.00
62510;BME280;48558;48.242;11.654;2023-04-28T10:55:40;96011.81;;;12.15;100.00
62510;BME280;48558;48.242;11.654;2023-04-28T11:00:25;96022.53;;;12.42;100.00
62510;BME280;48558;48.242;11.654;2023-04-28T11:05:09;96022.44;;;12.51;100.00
62510;BME280;48558;48.242;11.654;2023-04-28T11:23:09;95994.34;;;13.19;100.00
62510;BME280;48558;48.242;11.654;2023-04-28T11:27:29;96015.03;;;13.18;100.00
62510;BME280;48558;48.242;11.654;2023-04-28T11:31:49;96015.91;;;13.29;100.00
62510;BME280;48558;48.242;11.654;2023-04-28T11:36:03;96014.66;;;13.30;100.00
62510;BME280;48558;48.242;11.654;2023-04-28T11:40:17;96023.53;;;13.34;100.00
62510;BME280;48558;48.242;11.654;2023-04-28T11:44:30;96018.75;;;13.35;100.00
62510;BME280;48558;48.242;11.654;2023-04-28T11:48:43;96026.50;;;13.51;100.00
62510;BME280;48558;48.242;11.654;2023-04-28T11:52:56;96013.09;;;13.75;100.00
62510;BME280;48558;48.242;11.654;2023-04-28T11:57:19;96012.56;;;13.71;100.00
62510;BME280;48558;48.242;11.654;2023-04-28T12:01:33;95996.72;;;13.51;100.00
62510;BME280;48558;48.242;11.654;2023-04-28T12:05:49;95991.00;;;14.17;100.00
62510;BME280;48558;48.242;11.654;2023-04-28T12:10:12;95995.63;;;14.63;100.00
62510;BME280;48558;48.242;11.654;2023-04-28T12:15:00;95993.84;;;15.13;100.00
62510;BME280;48558;48.242;11.654;2023-04-28T12:19:18;95990.44;;;15.46;100.00
62510;BME280;48558;48.242;11.654;2023-04-28T12:23:32;95975.72;;;14.75;100.00
62510;BME280;48558;48.242;11.654;2023-04-28T12:27:59;95995.19;;;15.29;100.00
62510;BME280;48558;48.242;11.654;2023-04-28T12:32:13;96015.78;;;14.94;100.00
62510;BME280;48558;48.242;11.654;2023-04-28T12:36:27;96017.53;;;14.18;100.00
62510;BME280;48558;48.242;11.654;2023-04-28T12:40:41;96011.00;;;14.21;100.00
62510;BME280;48558;48.242;11.654;2023-04-28T12:44:54;96006.88;;;14.43;100.00
62510;BME280;48558;48.242;11.654;2023-04-28T12:49:16;96012.28;;;14.26;100.00
62510;BME280;48558;48.242;11.654;2023-04-28T12:53:29;96003.38;;;14.95;100.00
62510;BME280;48558;48.242;11.654;2023-04-28T12:57:45;96013.19;;;14.43;100.00
62510;BME280;48558;48.242;11.654;2023-04-28T13:02:08;95994.41;;;14.69;100.00
62510;BME280;48558;48.242;11.654;2023-04-28T13:06:21;95997.81;;;14.90;100.00
62510;BME280;48558;48.242;11.654;2023-04-28T13:10:33;96001.94;;;14.26;100.00
62510;BME280;48558;48.242;11.654;2023-04-28T13:14:47;95999.28;;;14.43;100.00
62510;BME280;48558;48.242;11.654;2023-04-28T13:19:00;95975.22;;;14.34;100.00
62510;BME280;48558;48.242;11.654;2023-04-28T13:23:13;95986.78;;;14.64;100.00
62510;BME280;48558;48.242;11.654;2023-04-28T13:27:33;95986.34;;;14.34;100.00
62510;BME280;48558;48.242;11.654;2023-04-28T13:31:48;95980.19;;;14.25;100.00
62510;BME280;48558;48.242;11.654;2023-04-28T13:36:01;95987.75;;;13.93;100.00
62510;BME280;48558;48.242;11.654;2023-04-28T13:40:13;95975.00;;;13.76;100.00
62510;BME280;48558;48.242;11.654;2023-04-28T13:44:26;95976.72;;;13.73;100.00
62510;BME280;48558;48.242;11.654;2023-04-28T13:48:38;95978.97;;;13.69;100.00
62510;BME280;48558;48.242;11.654;2023-04-28T13:52:51;95989.00;;;13.61;100.00
62510;BME280;48558;48.242;11.654;2023-04-28T13:57:05;95975.31;;;14.14;100.00
62510;BME280;48558;48.242;11.654;2023-04-28T14:01:17;95968.88;;;14.65;100.00
62510;BME280;48558;48.242;11.654;2023-04-28T14:05:30;95968.50;;;14.94;100.00
62510;BME280;48558;48.242;11.654;2023-04-28T14:09:56;95957.16;;;15.09;100.00
62510;BME280;48558;48.242;11.654;2023-04-28T14:14:08;95951.84;;;15.11;100.00
62510;BME280;48558;48.242;11.654;2023-04-28T14:18:21;95952.31;;;15.04;100.00
62510;BME280;48558;48.242;11.654;2023-04-28T14:22:33;95951.63;;;15.15;100.00
62510;BME280;48558;48.242;11.654;2023-04-28T14:26:46;95954.09;;;15.01;100.00
62510;BME280;48558;48.242;11.654;2023-04-28T14:31:04;95941.69;;;14.97;100.00
62510;BME280;48558;48.242;11.654;2023-04-28T14:35:20;95936.13;;;14.97;100.00
62510;BME280;48558;48.242;11.654;2023-04-28T14:39:33;95942.38;;;14.81;100.00
62510;BME280;48558;48.242;11.654;2023-04-28T14:43:47;95943.28;;;14.61;100.00
62510;BME280;48558;48.242;11.654;2023-04-28T14:48:00;95949.84;;;14.58;100.00
62510;BME280;48558;48.242;11.654;2023-04-28T14:52:12;95945.94;;;14.33;100.00
62510;BME280;48558;48.242;11.654;2023-04-28T14:56:25;95950.78;;;14.44;100.00
62510;BME280;48558;48.242;11.654;2023-04-28T15:00:37;95955.44;;;14.27;100.00
62510;BME280;48558;48.242;11.654;2023-04-28T15:04:51;95945.81;;;14.22;100.00
62510;BME280;48558;48.242;11.654;2023-04-28T15:09:04;95956.94;;;13.91;100.00
62510;BME280;48558;48.242;11.654;2023-04-28T15:13:17;95975.31;;;13.83;100.00
62510;BME280;48558;48.242;11.654;2023-04-28T15:17:30;95971.56;;;13.86;100.00
62510;BME280;48558;48.242;11.654;2023-04-28T15:21:42;95976.19;;;13.69;100.00
62510;BME280;48558;48.242;11.654;2023-04-28T15:25:55;95977.16;;;13.66;100.00
62510;BME280;48558;48.242;11.654;2023-04-28T15:30:08;95974.22;;;13.75;100.00
62510;BME280;48558;48.242;11.654;2023-04-28T15:34:21;95979.78;;;13.75;100.00
62510;BME280;48558;48.242;11.654;2023-04-28T15:38:34;95980.09;;;13.83;100.00
62510;BME280;48558;48.242;11.654;2023-04-28T15:42:47;95972.28;;;13.81;100.00
62510;BME280;48558;48.242;11.654;2023-04-28T15:47:00;95979.56;;;13.79;100.00
62510;BME280;48558;48.242;11.654;2023-04-28T15:51:12;95984.94;;;13.88;100.00
62510;BME280;48558;48.242;11.654;2023-04-28T16:00:14;95994.44;;;13.50;100.00
62510;BME280;48558;48.242;11.654;2023-04-28T16:04:27;95994.22;;;13.53;100.00
62510;BME280;48558;48.242;11.654;2023-04-28T16:08:40;95979.81;;;13.49;100.00
62510;BME280;48558;48.242;11.654;2023-04-28T16:12:52;95960.25;;;13.38;100.00
62510;BME280;48558;48.242;11.654;2023-04-28T16:17:06;95956.59;;;13.27;100.00
62510;BME280;48558;48.242;11.654;2023-04-28T16:21:18;95950.38;;;13.12;100.00
62510;BME280;48558;48.242;11.654;2023-04-28T16:25:31;95942.94;;;13.23;100.00
62510;BME280;48558;48.242;11.654;2023-04-28T16:29:43;95942.34;;;13.14;100.00
62510;BME280;48558;48.242;11.654;2023-04-28T16:33:56;95942.00;;;13.06;100.00
62510;BME280;48558;48.242;11.654;2023-04-28T16:38:10;95944.00;;;13.06;100.00
62510;BME280;48558;48.242;11.654;2023-04-28T16:42:32;95950.38;;;13.12;100.00
62510;BME280;48558;48.242;11.654;2023-04-28T16:46:44;95961.69;;;13.08;100.00
62510;BME280;48558;48.242;11.654;2023-04-28T16:50:58;95936.16;;;13.04;100.00
62510;BME280;48558;48.242;11.654;2023-04-28T16:55:11;95923.22;;;12.95;100.00
62510;BME280;48558;48.242;11.654;2023-04-28T16:59:34;95917.09;;;12.91;100.00
62510;BME280;48558;48.242;11.654;2023-04-28T17:03:49;95924.44;;;12.94;100.00
62510;BME280;48558;48.242;11.654;2023-04-28T17:08:02;95933.03;;;12.96;100.00
62510;BME280;48558;48.242;11.654;2023-04-28T17:12:15;95922.44;;;12.95;100.00
62510;BME280;48558;48.242;11.654;2023-04-28T17:16:32;95923.09;;;12.84;100.00
62510;BME280;48558;48.242;11.654;2023-04-28T17:20:55;95901.50;;;12.74;100.00
62510;BME280;48558;48.242;11.654;2023-04-28T17:25:08;95892.44;;;12.73;100.00
62510;BME280;48558;48.242;11.654;2023-04-28T17:29:22;95897.00;;;12.76;100.00
62510;BME280;48558;48.242;11.654;2023-04-28T17:33:35;95895.13;;;12.88;100.00
62510;BME280;48558;48.242;11.654;2023-04-28T17:37:48;95906.78;;;12.72;100.00
62510;BME280;48558;48.242;11.654;2023-04-28T17:42:01;95894.75;;;12.75;100.00
62510;BME280;48558;48.242;11.654;2023-04-28T17:46:13;95901.47;;;12.68;100.00
62510;BME280;48558;48.242;11.654;2023-04-28T17:50:29;95915.78;;;12.67;100.00
62510;BME280;48558;48.242;11.654;2023-04-28T17:54:41;95951.38;;;12.68;100.00
62510;BME280;48558;48.242;11.654;2023-04-28T17:58:54;95980.59;;;12.69;100.00
62510;BME280;48558;48.242;11.654;2023-04-28T18:03:07;95960.00;;;12.76;100.00
62510;BME280;48558;48.242;11.654;2023-04-28T18:07:20;95976.03;;;12.66;100.00
62510;BME280;48558;48.242;11.654;2023-04-28T18:11:42;95995.63;;;12.63;100.00
62510;BME280;48558;48.242;11.654;2023-04-28T18:15:55;96000.06;;;12.55;100.00
62510;BME280;48558;48.242;11.654;2023-04-28T18:20:08;95997.84;;;12.59;100.00
62510;BME280;48558;48.242;11.654;2023-04-28T18:24:29;96007.69;;;12.60;100.00
62510;BME280;48558;48.242;11.654;2023-04-28T18:28:45;96006.19;;;12.44;100.00
62510;BME280;48558;48.242;11.654;2023-04-28T18:32:59;96028.66;;;12.46;100.00
62510;BME280;48558;48.242;11.654;2023-04-28T18:37:14;96026.47;;;12.50;100.00
62510;BME280;48558;48.242;11.654;2023-04-28T18:41:26;96030.69;;;12.46;100.00
62510;BME280;48558;48.242;11.654;2023-04-28T18:45:39;96032.13;;;12.41;100.00
62510;BME280;48558;48.242;11.654;2023-04-28T18:49:54;96063.34;;;12.42;100.00
62510;BME280;48558;48.242;11.654;2023-04-28T18:54:07;96108.44;;;12.42;100.00
62510;BME280;48558;48.242;11.654;2023-04-28T18:58:29;96101.56;;;12.38;100.00
62510;BME280;48558;48.242;11.654;2023-04-28T19:02:42;96106.06;;;12.35;100.00
62510;BME280;48558;48.242;11.654;2023-04-28T19:07:05;96101.22;;;12.30;100.00
62510;BME280;48558;48.242;11.654;2023-04-28T19:11:18;96083.16;;;12.20;100.00
62510;BME280;48558;48.242;11.654;2023-04-28T19:15:30;96078.75;;;12.13;100.00
62510;BME280;48558;48.242;11.654;2023-04-28T19:19:44;96071.88;;;12.09;100.00
62510;BME280;48558;48.242;11.654;2023-04-28T19:23:56;96073.13;;;12.08;100.00
62510;BME280;48558;48.242;11.654;2023-04-28T19:28:19;96090.44;;;12.03;100.00
62510;BME280;48558;48.242;11.654;2023-04-28T19:32:32;96081.03;;;11.86;100.00
62510;BME280;48558;48.242;11.654;2023-04-28T19:36:44;96102.44;;;11.85;100.00
62510;BME280;48558;48.242;11.654;2023-04-28T19:40:58;96087.84;;;11.85;100.00
62510;BME280;48558;48.242;11.654;2023-04-28T19:45:12;96088.28;;;11.83;100.00
62510;BME280;48558;48.242;11.654;2023-04-28T19:49:35;96084.84;;;11.74;100.00
62510;BME280;48558;48.242;11.654;2023-04-28T19:53:47;96093.75;;;11.78;100.00
62510;BME280;48558;48.242;11.654;2023-04-28T19:58:02;96082.75;;;11.69;100.00
62510;BME280;48558;48.242;11.654;2023-04-28T20:02:15;96073.78;;;11.74;100.00
62510;BME280;48558;48.242;11.654;2023-04-28T20:06:28;96055.63;;;11.87;100.00
62510;BME280;48558;48.242;11.654;2023-04-28T20:10:52;96034.47;;;11.84;100.00
62510;BME280;48558;48.242;11.654;2023-04-28T20:15:07;96034.06;;;11.77;100.00
62510;BME280;48558;48.242;11.654;2023-04-28T20:19:20;96025.25;;;11.64;100.00
62510;BME280;48558;48.242;11.654;2023-04-28T20:23:42;96019.66;;;11.73;100.00
62510;BME280;48558;48.242;11.654;2023-04-28T20:27:55;96027.09;;;11.67;100.00
62510;BME280;48558;48.242;11.654;2023-04-28T20:32:14;96029.47;;;11.59;100.00
62510;BME280;48558;48.242;11.654;2023-04-28T20:36:26;96028.50;;;11.62;100.00
62510;BME280;48558;48.242;11.654;2023-04-28T20:40:39;96024.50;;;11.48;100.00
62510;BME280;48558;48.242;11.654;2023-04-28T20:44:52;96013.22;;;11.37;100.00
62510;BME280;48558;48.242;11.654;2023-04-28T20:49:04;96026.06;;;11.26;100.00
62510;BME280;48558;48.242;11.654;2023-04-28T20:53:16;96020.63;;;11.31;100.00
62510;BME280;48558;48.242;11.654;2023-04-28T20:57:39;96018.22;;;11.24;100.00
62510;BME280;48558;48.242;11.654;2023-04-28T21:01:51;96030.97;;;11.07;100.00
62510;BME280;48558;48.242;11.654;2023-04-28T21:06:04;96030.13;;;11.01;100.00
62510;BME280;48558;48.242;11.654;2023-04-28T21:10:17;96043.81;;;10.96;100.00
62510;BME280;48558;48.242;11.654;2023-04-28T21:14:29;96047.13;;;10.85;100.00
62510;BME280;48558;48.242;11.654;2023-04-28T21:18:45;96036.75;;;10.71;100.00
62510;BME280;48558;48.242;11.654;2023-04-28T21:22:58;96059.69;;;10.86;100.00
62510;BME280;48558;48.242;11.654;2023-04-28T21:27:10;96063.28;;;10.77;100.00
62510;BME280;48558;48.242;11.654;2023-04-28T21:31:23;96063.31;;;10.68;100.00
62510;BME280;48558;48.242;11.654;2023-04-28T21:35:36;96047.16;;;10.76;100.00
62510;BME280;48558;48.242;11.654;2023-04-28T21:39:54;96041.50;;;10.70;100.00
62510;BME280;48558;48.242;11.654;2023-04-28T21:44:07;96051.16;;;10.75;100.00
62510;BME280;48558;48.242;11.654;2023-04-28T21:48:20;96055.75;;;10.78;100.00
62510;BME280;48558;48.242;11.654;2023-04-28T21:52:32;96052.44;;;10.89;100.00
62510;BME280;48558;48.242;11.654;2023-04-28T21:56:45;96048.41;;;10.99;100.00
62510;BME280;48558;48.242;11.654;2023-04-28T22:00:58;96053.88;;;11.08;100.00
62510;BME280;48558;48.242;11.654;2023-04-28T22:05:10;96046.31;;;11.08;100.00
62510;BME280;48558;48.242;11.654;2023-04-28T22:09:24;96054.94;;;11.10;100.00
62510;BME280;48558;48.242;11.654;2023-04-28T22:13:45;96049.56;;;11.07;100.00
62510;BME280;48558;48.242;11.654;2023-04-28T22:17:58;96047.38;;;11.11;100.00
62510;BME280;48558;48.242;11.654;2023-04-28T22:22:11;96036.78;;;11.09;100.00
62510;BME280;48558;48.242;11.654;2023-04-28T22:26:34;96023.03;;;11.00;100.00
62510;BME280;48558;48.242;11.654;2023-04-28T22:30:47;96036.88;;;11.00;100.00